Time;durP1;ratioP1;P1;durP2;ratioP2;P2;SDS_P1;SDS_P2;PMS_P1;PMS_P2;Temp;Humidity;BMP_temperature;BMP_pressure;BME280_temperature;BME280_humidity;BME280_pressure;Samples;Min_cycle;Max_cycle;Signal;HPM_P1;HPM_P2
2022/12/19 00:00:21;;;;;;;11.18;8.30;;;;;;;20.41;52.53;96529.09;5030529;28;20435;-61
2022/12/19 00:02:46;;;;;;;11.75;8.60;;;;;;;20.93;52.69;96629.25;5047598;28;20523;-60
2022/12/19 00:05:12;;;;;;;9.57;7.78;;;;;;;20.33;52.65;96521.72;5066190;28;20040;-62
2022/12/19 00:07:37;;;;;;;10.32;8.52;;;;;;;21.08;52.90;96637.06;5066098;28;20718;-61
2022/12/19 00:10:03;;;;;;;10.00;7.80;;;;;;;21.03;52.71;96643.09;5065357;28;20044;-61
2022/12/19 00:12:29;;;;;;;10.95;8.60;;;;;;;21.10;52.16;96639.31;5066039;28;20489;-61
2022/12/19 00:14:55;;;;;;;10.55;8.35;;;;;;;20.10;52.35;96498.69;5048185;28;20040;-61
2022/12/19 00:17:20;;;;;;;10.15;8.10;;;;;;;21.07;52.48;96632.81;5048265;28;20032;-61
2022/12/19 00:19:45;;;;;;;10.32;8.77;;;;;;;20.85;52.80;96619.88;5047445;28;20045;-61
2022/12/19 00:22:11;;;;;;;10.27;8.48;;;;;;;20.46;52.71;96563.03;5047042;28;20044;-61
2022/12/19 00:24:36;;;;;;;11.73;8.65;;;;;;;20.91;52.65;96637.06;5064522;28;20041;-61
2022/12/19 00:27:02;;;;;;;9.60;7.55;;;;;;;21.06;52.11;96642.19;5047490;28;20075;-61
2022/12/19 00:29:27;;;;;;;9.77;8.00;;;;;;;20.96;52.17;96625.63;5035942;28;20028;-61
2022/12/19 00:31:53;;;;;;;9.73;7.60;;;;;;;21.12;52.22;96653.19;5051071;28;20040;-62
2022/12/19 00:34:18;;;;;;;9.15;7.65;;;;;;;21.08;52.31;96642.50;5065076;28;20098;-61
2022/12/19 00:36:43;;;;;;;10.30;8.50;;;;;;;20.96;52.43;96629.84;5065728;28;20047;-61
2022/12/19 00:39:10;;;;;;;9.45;7.72;;;;;;;21.03;52.61;96653.97;5065229;28;20067;-61
2022/12/19 00:41:37;;;;;;;10.48;7.95;;;;;;;20.36;52.36;96561.50;5065631;28;20138;-61
2022/12/19 00:44:04;;;;;;;9.45;7.97;;;;;;;20.85;52.50;96638.88;5046189;28;20050;-61
2022/12/19 00:46:31;;;;;;;10.23;7.60;;;;;;;21.00;52.43;96646.72;5065153;28;20051;-61
2022/12/19 00:48:56;;;;;;;10.07;8.20;;;;;;;21.06;52.15;96666.66;5045278;28;20052;-61
2022/12/19 00:51:24;;;;;;;9.73;7.40;;;;;;;21.08;52.11;96653.34;5029754;28;20052;-61
2022/12/19 00:53:49;;;;;;;9.10;7.18;;;;;;;20.82;52.52;96618.06;5026576;28;20048;-61
2022/12/19 00:56:17;;;;;;;10.80;7.68;;;;;;;20.43;52.59;96601.91;5057470;28;20147;-61
2022/12/19 00:58:42;;;;;;;9.75;8.30;;;;;;;20.96;52.49;96650.81;5046672;28;20045;-62
2022/12/19 01:01:12;;;;;;;9.27;7.70;;;;;;;20.96;52.35;96655.50;5063798;28;20452;-61
2022/12/19 01:03:38;;;;;;;10.02;7.65;;;;;;;21.01;51.97;96656.38;5063748;28;20037;-62
2022/12/19 01:06:03;;;;;;;9.82;7.95;;;;;;;20.91;52.20;96642.50;5065049;28;20602;-61
2022/12/19 01:08:29;;;;;;;9.93;8.00;;;;;;;20.98;52.18;96660.03;5065123;28;20556;-60
2022/12/19 01:10:54;;;;;;;9.93;7.88;;;;;;;20.98;52.22;96681.75;5064360;28;20044;-61
2022/12/19 01:13:21;;;;;;;8.82;7.15;;;;;;;20.86;52.60;96652.00;5063904;28;20486;-60
2022/12/19 01:15:47;;;;;;;9.75;7.75;;;;;;;20.92;52.56;96671.91;5052353;28;20041;-61
2022/12/19 01:18:13;;;;;;;9.30;7.68;;;;;;;20.62;52.36;96625.91;5044005;28;20060;-61
2022/12/19 01:20:42;;;;;;;9.32;7.43;;;;;;;20.29;52.38;96576.13;5045411;28;20041;-61
2022/12/19 01:23:08;;;;;;;9.33;7.43;;;;;;;20.98;52.24;96670.09;5042572;28;20132;-60
2022/12/19 01:25:34;;;;;;;8.75;7.07;;;;;;;20.49;51.89;96600.84;5044411;28;20182;-61
2022/12/19 01:28:00;;;;;;;9.68;7.38;;;;;;;20.37;51.95;96577.31;5044565;28;20048;-62
2022/12/19 01:30:25;;;;;;;9.68;7.53;;;;;;;20.94;52.22;96676.91;5044170;28;20814;-61
2022/12/19 01:32:51;;;;;;;9.07;7.20;;;;;;;20.93;51.97;96683.56;5042528;28;20062;-61
2022/12/19 01:35:16;;;;;;;9.00;7.45;;;;;;;20.93;51.97;96680.84;5044814;28;20029;-61
2022/12/19 01:37:42;;;;;;;10.77;7.63;;;;;;;20.96;51.60;96671.78;5043063;28;20041;-61
2022/12/19 01:40:10;;;;;;;10.52;7.93;;;;;;;20.97;51.87;96674.06;5044452;28;20051;-61
2022/12/19 01:42:36;;;;;;;10.07;7.68;;;;;;;20.44;51.85;96598.00;5026414;28;20037;-61
2022/12/19 01:45:01;;;;;;;9.80;7.57;;;;;;;20.94;52.01;96668.75;5043862;28;20047;-61
2022/12/19 01:47:27;;;;;;;8.57;7.07;;;;;;;20.89;52.19;96682.94;5044192;28;20044;-61
2022/12/19 01:49:53;;;;;;;8.13;6.90;;;;;;;20.18;51.61;96559.56;5042653;28;20053;-61
2022/12/19 01:52:18;;;;;;;8.50;7.03;;;;;;;20.91;51.59;96664.22;5025352;28;20037;-61
2022/12/19 01:54:43;;;;;;;9.50;7.30;;;;;;;20.91;51.60;96654.13;5043013;28;20056;-61
2022/12/19 01:57:12;;;;;;;9.55;7.70;;;;;;;20.28;51.73;96569.19;5043095;28;20037;-61
2022/12/19 01:59:46;;;;;;;9.23;6.88;;;;;;;20.87;51.82;96653.53;5042981;28;20040;-61
2022/12/19 02:02:22;;;;;;;9.38;7.20;;;;;;;20.73;51.76;96631.66;5031559;28;20107;-61
2022/12/19 02:04:47;;;;;;;9.90;7.05;;;;;;;20.89;51.86;96650.34;5042489;28;20418;-61
2022/12/19 02:07:13;;;;;;;9.38;7.55;;;;;;;20.83;51.91;96647.47;5043434;28;20090;-61
2022/12/19 02:09:39;;;;;;;8.80;6.97;;;;;;;20.87;51.60;96650.06;5025646;28;20110;-61
2022/12/19 02:12:04;;;;;;;10.10;7.35;;;;;;;20.92;51.71;96663.03;5042268;28;20127;-61
2022/12/19 02:14:30;;;;;;;8.07;6.80;;;;;;;20.81;51.73;96643.72;5047583;28;20111;-61
2022/12/19 02:17:10;;;;;;;8.27;6.55;;;;;;;20.67;51.76;96641.56;5032885;28;20060;-61
2022/12/19 02:20:00;;;;;;;9.07;7.57;;;;;;;20.85;51.85;96655.19;5046416;28;20090;-61
2022/12/19 02:22:44;;;;;;;8.45;7.05;;;;;;;20.05;50.91;96531.81;5037227;28;20063;-62
2022/12/19 02:25:12;;;;;;;9.20;7.25;;;;;;;20.91;51.33;96653.38;5029687;28;20045;-61
2022/12/19 02:27:46;;;;;;;8.30;6.75;;;;;;;20.57;51.51;96610.22;5048332;28;20108;-61
2022/12/19 02:30:11;;;;;;;8.73;6.93;;;;;;;20.89;51.50;96672.09;5041081;28;20544;-61
2022/12/19 02:32:58;;;;;;;8.38;7.00;;;;;;;20.32;51.63;96591.50;5048103;28;20029;-60
2022/12/19 02:35:32;;;;;;;9.30;7.53;;;;;;;20.73;51.51;96664.22;5012585;28;20041;-61
2022/12/19 02:38:20;;;;;;;8.25;6.97;;;;;;;20.84;51.33;96675.41;5045204;28;20476;-61
2022/12/19 02:40:55;;;;;;;8.77;7.22;;;;;;;20.88;51.34;96670.56;5045513;28;20045;-61
2022/12/19 02:43:20;;;;;;;8.63;6.80;;;;;;;20.87;51.25;96677.22;5029317;28;20036;-61
2022/12/19 02:45:46;;;;;;;8.20;6.80;;;;;;;20.84;51.40;96667.25;5038858;28;20048;-61
2022/12/19 02:48:12;;;;;;;8.63;6.90;;;;;;;20.78;51.71;96693.50;5026202;28;20683;-62
2022/12/19 02:50:37;;;;;;;7.25;6.50;;;;;;;20.13;51.38;96568.28;5021644;28;20026;-61
2022/12/19 02:53:02;;;;;;;8.57;6.90;;;;;;;20.81;51.53;96666.19;5038066;28;20057;-61
2022/12/19 02:55:28;;;;;;;9.02;7.20;;;;;;;20.67;51.25;96638.84;5047053;28;20052;-61
2022/12/19 02:58:21;;;;;;;8.68;6.55;;;;;;;20.83;51.08;96658.34;5012666;28;20053;-61
2022/12/19 03:01:19;;;;;;;7.88;6.32;;;;;;;20.84;51.34;96661.84;5037593;28;20041;-61
2022/12/19 03:03:53;;;;;;;7.95;6.80;;;;;;;20.81;51.44;96654.59;5032930;28;20071;-62
2022/12/19 03:06:31;;;;;;;8.40;6.85;;;;;;;20.69;51.58;96636.50;5047611;28;20036;-61
2022/12/19 03:08:57;;;;;;;8.27;6.53;;;;;;;20.82;51.21;96645.22;5029368;28;20167;-61
2022/12/19 03:11:23;;;;;;;8.88;6.85;;;;;;;20.82;51.01;96650.66;5047303;28;20079;-61
2022/12/19 03:14:01;;;;;;;8.63;6.78;;;;;;;20.83;50.87;96646.75;5028875;28;20080;-62
2022/12/19 03:16:26;;;;;;;8.23;6.82;;;;;;;20.74;51.08;96654.88;5027970;28;20069;-61
2022/12/19 03:18:55;;;;;;;7.80;6.43;;;;;;;20.81;51.24;96649.91;5045468;28;20045;-62
2022/12/19 03:21:31;;;;;;;8.13;6.45;;;;;;;20.79;51.22;96651.56;5027760;28;20477;-61
2022/12/19 03:23:57;;;;;;;8.35;6.55;;;;;;;20.77;51.04;96649.28;5043501;28;20029;-61
2022/12/19 03:26:26;;;;;;;8.15;6.40;;;;;;;19.99;50.98;96529.41;5027753;28;20098;-62
2022/12/19 03:29:20;;;;;;;8.48;6.78;;;;;;;20.81;50.86;96660.78;5046312;28;20144;-61
2022/12/19 03:31:45;;;;;;;8.43;6.65;;;;;;;20.80;51.11;96674.78;5031917;28;20044;-62
2022/12/19 03:34:16;;;;;;;8.32;6.57;;;;;;;20.74;50.90;96663.03;5044210;28;20052;-61
2022/12/19 03:36:44;;;;;;;7.82;6.18;;;;;;;20.75;51.32;96667.25;5044775;28;20458;-61
2022/12/19 03:39:10;;;;;;;8.60;6.38;;;;;;;20.69;51.08;96674.50;5044302;28;20041;-61
2022/12/19 03:44:19;;;;;;;8.38;6.32;;;;;;;20.71;51.09;96669.34;5024201;28;20094;-61
2022/12/19 03:46:50;;;;;;;8.13;6.63;;;;;;;20.79;50.77;96667.84;5024124;28;20150;-61
2022/12/19 03:49:16;;;;;;;8.10;6.40;;;;;;;20.78;50.84;96669.81;5011310;28;20567;-61
2022/12/19 03:51:58;;;;;;;8.38;6.45;;;;;;;20.64;50.97;96661.47;5025919;28;20046;-61
2022/12/19 03:54:26;;;;;;;8.43;6.47;;;;;;;20.73;51.17;96675.84;5024309;28;20033;-61
2022/12/19 03:57:06;;;;;;;9.05;6.72;;;;;;;20.18;50.42;96592.09;5007559;28;20040;-61
2022/12/19 03:59:45;;;;;;;8.15;6.50;;;;;;;20.77;50.87;96683.84;5026622;28;20429;-61
2022/12/19 04:02:12;;;;;;;8.75;6.53;;;;;;;19.99;50.51;96578.22;5012352;28;20074;-61
2022/12/19 04:04:58;;;;;;;8.43;6.78;;;;;;;19.96;50.58;96573.69;5007712;28;20096;-61
2022/12/19 04:07:24;;;;;;;8.05;6.50;;;;;;;20.76;50.94;96712.97;5025425;28;20038;-61
2022/12/19 04:09:50;;;;;;;7.75;6.20;;;;;;;19.79;50.51;96558.84;5023774;28;20490;-61
2022/12/19 04:12:20;;;;;;;8.40;6.65;;;;;;;20.68;50.40;96694.69;5023984;28;20049;-62
2022/12/19 04:14:46;;;;;;;8.15;6.53;;;;;;;20.77;50.55;96702.84;5007941;28;20456;-61
2022/12/19 04:17:29;;;;;;;7.57;6.22;;;;;;;20.78;50.51;96707.06;5065082;28;20585;-61
2022/12/19 04:20:00;;;;;;;8.80;6.60;;;;;;;20.74;50.62;96714.59;5047235;28;20052;-61
2022/12/19 04:22:41;;;;;;;8.25;6.80;;;;;;;20.73;50.34;96730.16;5065007;28;20122;-62
2022/12/19 04:25:10;;;;;;;8.88;6.63;;;;;;;20.59;50.83;96724.50;5046763;28;20048;-62
2022/12/19 04:27:37;;;;;;;7.60;6.38;;;;;;;20.70;50.59;96719.41;5031221;28;20109;-60
2022/12/19 04:30:02;;;;;;;8.45;6.40;;;;;;;20.74;50.14;96730.88;5033463;28;20036;-63
2022/12/19 04:32:28;;;;;;;7.65;5.93;;;;;;;20.74;50.27;96709.16;5048013;28;20479;-61
2022/12/19 04:34:53;;;;;;;8.27;6.50;;;;;;;20.74;50.21;96714.59;5065062;28;20143;-63
2022/12/19 04:37:19;;;;;;;7.45;6.03;;;;;;;20.72;50.44;96725.16;5046693;28;20044;-62
2022/12/19 04:39:44;;;;;;;7.70;6.25;;;;;;;20.71;50.21;96707.34;5039513;28;20128;-63
2022/12/19 04:42:10;;;;;;;8.38;6.30;;;;;;;20.72;50.80;96711.59;5059102;28;20579;-61
2022/12/19 04:44:35;;;;;;;7.82;6.07;;;;;;;20.74;50.31;96714.59;5065528;28;20488;-61
2022/12/19 04:47:01;;;;;;;8.13;6.40;;;;;;;20.66;50.37;96708.69;5063291;28;20040;-61
2022/12/19 04:49:26;;;;;;;7.45;6.45;;;;;;;20.69;50.34;96724.09;5065046;28;20048;-60
2022/12/19 04:51:51;;;;;;;8.35;6.63;;;;;;;20.55;50.24;96689.38;5064210;28;20542;-60
2022/12/19 04:54:17;;;;;;;8.32;6.32;;;;;;;19.95;50.11;96605.44;5064767;28;20059;-61
2022/12/19 04:56:42;;;;;;;8.00;6.28;;;;;;;20.69;50.21;96723.34;5064660;28;20043;-61
2022/12/19 04:59:08;;;;;;;7.75;6.32;;;;;;;20.67;49.99;96717.56;5046040;28;20044;-61
2022/12/19 05:01:33;;;;;;;7.63;6.60;;;;;;;20.47;50.18;96690.09;5029511;28;20036;-61
2022/12/19 05:03:59;;;;;;;7.90;6.28;;;;;;;20.70;50.03;96730.28;5025624;28;20546;-61
2022/12/19 05:06:24;;;;;;;8.27;6.72;;;;;;;20.64;49.93;96726.59;5042869;28;20048;-61
2022/12/19 05:08:49;;;;;;;7.72;6.00;;;;;;;20.66;49.99;96740.50;5043815;28;20041;-61
2022/12/19 05:11:15;;;;;;;7.53;6.05;;;;;;;20.66;50.18;96724.97;5040043;28;20173;-61
2022/12/19 05:13:41;;;;;;;8.65;6.65;;;;;;;20.67;49.94;96720.28;5060353;28;20045;-61
2022/12/19 05:16:09;;;;;;;7.93;6.20;;;;;;;20.67;50.03;96718.38;5051808;28;20639;-61
2022/12/19 05:18:36;;;;;;;8.35;6.28;;;;;;;20.62;49.87;96718.16;5039257;28;20235;-61
2022/12/19 05:21:01;;;;;;;8.02;6.15;;;;;;;19.28;49.97;96514.44;5043712;28;20420;-61
2022/12/19 05:23:27;;;;;;;7.32;6.05;;;;;;;20.70;49.87;96724.84;5028077;28;20102;-61
2022/12/19 05:25:52;;;;;;;9.07;6.97;;;;;;;20.62;50.35;96718.16;5043392;28;20366;-61
2022/12/19 05:28:18;;;;;;;7.53;5.88;;;;;;;20.61;49.84;96711.22;5049929;28;20067;-61
2022/12/19 05:30:43;;;;;;;7.88;5.97;;;;;;;20.76;50.05;96744.75;5043401;28;20049;-62
2022/12/19 05:33:08;;;;;;;7.90;6.18;;;;;;;20.70;49.76;96708.56;5043493;28;20127;-62
2022/12/19 05:35:34;;;;;;;7.63;6.00;;;;;;;20.84;50.40;96724.28;5025879;28;20036;-62
2022/12/19 05:38:00;;;;;;;7.03;5.72;;;;;;;20.98;49.87;96717.06;5042840;28;20080;-62
2022/12/19 05:40:25;;;;;;;7.32;5.75;;;;;;;21.25;49.71;96738.75;5057279;28;20051;-61
2022/12/19 05:42:51;;;;;;;7.70;5.65;;;;;;;21.36;50.03;96736.34;5054034;28;20053;-61
2022/12/19 05:45:16;;;;;;;7.20;5.85;;;;;;;21.46;49.50;96732.44;5041925;28;20056;-61
2022/12/19 05:47:45;;;;;;;8.27;5.90;;;;;;;21.48;49.38;96719.91;5025011;28;20040;-61
2022/12/19 05:50:11;;;;;;;7.80;5.88;;;;;;;21.05;48.44;96632.53;5040356;28;21182;-61
2022/12/19 05:52:37;;;;;;;7.13;5.45;;;;;;;21.62;48.53;96707.66;5039762;28;20152;-61
2022/12/19 05:55:04;;;;;;;7.57;5.95;;;;;;;21.88;48.38;96746.84;5036680;28;20041;-62
2022/12/19 05:57:29;;;;;;;7.60;5.78;;;;;;;21.86;48.07;96728.28;5053650;28;20052;-62
2022/12/19 05:59:55;;;;;;;7.38;5.80;;;;;;;22.01;47.66;96734.56;5043610;28;20457;-62
2022/12/19 06:02:20;;;;;;;6.97;5.70;;;;;;;20.84;46.95;96528.81;5043740;28;20068;-61
2022/12/19 06:04:45;;;;;;;6.90;5.70;;;;;;;22.26;47.32;96734.97;5042392;28;20086;-62
2022/12/19 06:07:11;;;;;;;7.32;5.90;;;;;;;22.44;46.41;96756.66;5043004;28;20055;-61
2022/12/19 06:09:36;;;;;;;7.88;5.72;;;;;;;22.47;46.78;96739.41;5042006;28;20049;-61
2022/12/19 06:12:02;;;;;;;7.80;5.72;;;;;;;22.47;46.11;96761.19;5041645;28;20029;-61
2022/12/19 06:14:27;;;;;;;7.88;5.78;;;;;;;22.41;46.63;96735.81;5041724;28;20025;-61
2022/12/19 06:16:53;;;;;;;8.32;6.05;;;;;;;22.42;46.65;96731.88;4990296;28;20057;-61
2022/12/19 06:19:18;;;;;;;7.60;6.15;;;;;;;22.53;46.60;96743.00;5020561;28;20049;-62
2022/12/19 06:21:44;;;;;;;6.50;5.38;;;;;;;22.64;46.65;96754.13;5020840;28;20057;-62
2022/12/19 06:24:09;;;;;;;7.68;5.65;;;;;;;22.79;46.39;96760.41;5019127;28;20049;-62
2022/12/19 06:26:35;;;;;;;8.20;5.07;;;;;;;22.90;45.68;96756.69;5014109;28;20037;-62
2022/12/19 06:29:00;;;;;;;7.15;5.00;;;;;;;22.83;45.69;96739.19;5023164;28;20706;-62
2022/12/19 06:31:26;;;;;;;7.05;5.25;;;;;;;22.89;44.74;96749.72;5018398;28;20053;-62
2022/12/19 06:33:51;;;;;;;6.63;5.20;;;;;;;23.01;45.05;96746.03;5014335;28;20050;-63
2022/12/19 06:36:20;;;;;;;6.97;5.25;;;;;;;22.75;44.48;96716.22;5022709;28;20079;-64
2022/12/19 06:38:47;;;;;;;5.80;4.95;;;;;;;22.92;44.87;96748.81;5023178;28;20068;-61
2022/12/19 06:44:00;;;;;;;7.55;5.43;;;;;;;22.96;44.54;96754.88;5023828;28;20094;-63
2022/12/19 06:46:25;;;;;;;7.63;5.63;;;;;;;22.89;44.02;96738.84;5027622;28;20076;-62
2022/12/19 06:48:51;;;;;;;7.78;4.93;;;;;;;23.21;43.92;96753.63;5022241;28;20065;-62
2022/12/19 06:51:17;;;;;;;8.13;5.28;;;;;;;23.19;44.31;96762.25;5024865;28;20411;-62
2022/12/19 06:53:42;;;;;;;7.85;5.15;;;;;;;22.87;44.38;96742.47;5041489;28;20036;-64
2022/12/19 06:56:08;;;;;;;6.60;5.40;;;;;;;23.17;44.40;96775.63;5025095;28;20541;-62
2022/12/19 06:58:33;;;;;;;15.00;5.88;;;;;;;23.13;44.20;96763.38;5022024;28;20063;-62
2022/12/19 07:01:00;;;;;;;22.15;6.68;;;;;;;23.19;43.94;96811.31;5059653;28;20049;-63
2022/12/19 07:03:28;;;;;;;11.20;5.55;;;;;;;23.45;43.78;96795.97;5040812;28;20049;-63
2022/12/19 07:05:54;;;;;;;11.77;6.45;;;;;;;22.50;43.03;96626.88;5021713;28;20036;-63
2022/12/19 07:08:19;;;;;;;15.50;6.10;;;;;;;23.48;43.55;96795.03;5025926;28;20029;-62
2022/12/19 07:10:45;;;;;;;14.07;5.70;;;;;;;22.58;43.52;96668.84;5012533;28;20052;-62
2022/12/19 07:13:10;;;;;;;12.55;6.13;;;;;;;23.35;43.82;96770.03;5032708;28;20072;-62
2022/12/19 07:15:35;;;;;;;19.23;6.53;;;;;;;23.45;43.42;96776.91;5038140;28;20045;-63
2022/12/19 07:18:01;;;;;;;21.33;7.10;;;;;;;22.79;43.07;96695.03;5065548;28;20032;-62
2022/12/19 07:20:26;;;;;;;15.25;5.82;;;;;;;23.58;43.33;96788.31;5040961;28;20048;-76
2022/12/19 07:22:52;;;;;;;15.45;6.70;;;;;;;23.75;42.86;96797.56;5025801;28;20504;-62
2022/12/19 07:25:17;;;;;;;19.10;6.63;;;;;;;23.73;42.82;96795.31;5064262;28;20743;-63
2022/12/19 07:27:43;;;;;;;17.35;6.88;;;;;;;23.58;43.20;96793.75;5065270;28;20110;-63
2022/12/19 07:30:32;;;;;;;16.98;6.45;;;;;;;23.93;42.39;96793.47;5055805;28;20075;-62
2022/12/19 07:32:57;;;;;;;18.27;6.30;;;;;;;23.70;42.96;96795.50;5052171;28;20033;-62
2022/12/19 07:35:23;;;;;;;13.40;6.32;;;;;;;23.10;42.10;96688.75;5065267;28;20028;-63
2022/12/19 07:37:49;;;;;;;16.15;7.05;;;;;;;23.86;42.23;96798.53;5036783;23;20811;-75
2022/12/19 07:40:15;;;;;;;15.82;6.35;;;;;;;23.74;42.39;96774.25;5027861;28;20083;-76
2022/12/19 07:42:40;;;;;;;17.75;6.50;;;;;;;23.63;42.27;96774.00;5003242;28;20640;-76
2022/12/19 07:45:06;;;;;;;19.33;6.97;;;;;;;23.68;42.17;96787.03;5025419;28;20051;-78
2022/12/19 07:47:32;;;;;;;20.23;7.13;;;;;;;23.83;42.21;96831.47;5026336;28;20132;-79
2022/12/19 07:49:58;;;;;;;13.52;6.47;;;;;;;23.78;42.61;96823.91;5025314;28;20106;-74
2022/12/19 07:52:23;;;;;;;19.65;6.55;;;;;;;23.62;42.40;96814.19;5042764;28;20534;-74
2022/12/19 07:54:49;;;;;;;14.73;6.50;;;;;;;23.54;42.58;96820.44;5044423;28;20053;-74
2022/12/19 07:57:14;;;;;;;15.75;6.90;;;;;;;23.81;42.07;96833.91;5038963;28;20443;-74
2022/12/19 07:59:39;;;;;;;15.73;6.30;;;;;;;23.86;41.75;96836.00;5042560;28;20025;-73
2022/12/19 08:02:05;;;;;;;14.98;7.10;;;;;;;23.88;42.13;96845.19;5021684;28;20045;-75
2022/12/19 08:04:30;;;;;;;15.73;6.97;;;;;;;23.81;42.08;96839.34;5029942;28;20515;-74
2022/12/19 08:06:56;;;;;;;13.63;6.35;;;;;;;23.85;41.68;96842.66;5002941;28;20491;-74
2022/12/19 08:09:21;;;;;;;17.00;6.32;;;;;;;23.88;42.12;96845.97;5042596;28;20052;-74
2022/12/19 08:11:47;;;;;;;18.48;7.10;;;;;;;23.86;41.72;96842.94;5025996;28;20029;-74
2022/12/19 08:14:12;;;;;;;13.30;6.70;;;;;;;23.66;42.64;96833.13;5034863;28;20435;-76
2022/12/19 08:16:38;;;;;;;15.35;6.97;;;;;;;23.92;41.64;96851.97;5041622;28;20510;-74
2022/12/19 08:19:03;;;;;;;17.80;7.13;;;;;;;23.61;41.81;96814.66;5027334;28;20029;-76
2022/12/19 08:21:29;;;;;;;14.73;7.15;;;;;;;23.51;41.88;96805.03;5032316;28;20056;-76
2022/12/19 08:23:54;;;;;;;12.40;6.55;;;;;;;23.98;41.26;96836.47;5013180;28;20064;-73
2022/12/19 08:26:23;;;;;;;13.15;6.72;;;;;;;23.82;42.10;96851.78;5030874;28;20098;-73
2022/12/19 08:28:51;;;;;;;17.23;6.17;;;;;;;23.54;42.32;96859.41;5028607;28;20049;-74
2022/12/19 08:31:16;;;;;;;14.93;6.60;;;;;;;22.91;42.32;96730.97;5035227;28;20052;-74
2022/12/19 08:33:42;;;;;;;14.63;6.72;;;;;;;23.66;42.39;96835.84;5028825;28;20033;-76
2022/12/19 08:36:10;;;;;;;14.25;6.70;;;;;;;23.88;41.96;96845.97;5007721;28;20065;-75
2022/12/19 08:38:35;;;;;;;13.90;6.47;;;;;;;23.80;41.61;96859.69;5032002;28;20029;-71
2022/12/19 08:41:01;;;;;;;13.45;6.70;;;;;;;24.04;40.97;96842.78;5026640;28;20423;-73
2022/12/19 08:43:26;;;;;;;14.63;6.80;;;;;;;24.05;41.26;96859.91;5008596;28;20496;-72
2022/12/19 08:45:52;;;;;;;12.95;6.40;;;;;;;23.68;41.90;96819.78;5032365;28;20681;-73
2022/12/19 08:48:17;;;;;;;14.40;6.78;;;;;;;23.71;41.63;96818.84;5011339;28;20037;-72
2022/12/19 08:50:50;;;;;;;10.93;6.55;;;;;;;23.62;41.82;96807.97;5033135;28;20049;-73
2022/12/19 08:53:15;;;;;;;13.70;6.63;;;;;;;23.37;41.47;96778.47;5030773;28;20044;-76
2022/12/19 08:55:41;;;;;;;12.27;6.22;;;;;;;23.71;40.84;96772.47;5026882;28;20431;-76
2022/12/19 08:58:06;;;;;;;12.18;5.95;;;;;;;24.17;40.59;96832.34;5029119;28;20526;-74
2022/12/19 09:00:32;;;;;;;14.02;6.57;;;;;;;23.72;41.54;96793.06;5032112;28;20033;-74
2022/12/19 09:02:57;;;;;;;12.35;6.50;;;;;;;23.95;41.42;96818.28;5018087;28;20048;-72
2022/12/19 09:05:22;;;;;;;13.45;6.50;;;;;;;24.02;41.26;96834.31;5027164;28;20083;-73
2022/12/19 09:07:48;;;;;;;13.43;6.32;;;;;;;24.26;40.68;96832.25;5027701;28;20478;-73
2022/12/19 09:10:13;;;;;;;10.90;6.50;;;;;;;24.15;40.92;96832.03;5029457;28;20034;-74
2022/12/19 09:12:40;;;;;;;12.05;7.07;;;;;;;23.90;41.09;96783.47;5007807;28;20079;-74
2022/12/19 09:15:06;;;;;;;13.07;6.82;;;;;;;24.19;40.84;96816.22;5045762;28;20141;-74
2022/12/19 09:17:31;;;;;;;13.85;6.97;;;;;;;24.13;40.57;96785.34;5041025;28;20371;-76
2022/12/19 09:19:56;;;;;;;15.70;6.70;;;;;;;24.28;40.53;96796.28;5025122;28;20037;-74
2022/12/19 09:22:22;;;;;;;10.95;6.55;;;;;;;23.70;40.67;96735.50;5039375;28;20727;-74
2022/12/19 09:27:22;;;;;;;10.45;6.15;;;;;;;24.59;39.75;96778.19;3187300;26;20034;-62
2022/12/19 09:29:48;;;;;;;12.30;6.97;;;;;;;24.04;40.18;96706.31;4999116;28;20080;-61
2022/12/19 09:32:13;;;;;;;10.85;6.68;;;;;;;23.97;40.39;96711.41;4998885;28;20500;-62
2022/12/19 09:34:39;;;;;;;9.80;5.97;;;;;;;24.29;40.84;96776.69;4989975;28;20045;-62
2022/12/19 09:37:10;;;;;;;10.93;6.28;;;;;;;24.23;40.59;96769.63;4986023;28;20437;-63
2022/12/19 09:39:35;;;;;;;10.55;6.40;;;;;;;24.23;40.05;96745.81;4991630;28;20046;-62
2022/12/19 09:42:25;;;;;;;10.07;5.90;;;;;;;24.54;39.88;96765.19;4993129;28;20038;-63
2022/12/19 09:45:19;;;;;;;11.98;6.38;;;;;;;24.52;39.82;96767.63;4988479;28;20169;-64
2022/12/19 09:47:46;;;;;;;9.30;6.07;;;;;;;24.48;40.14;96764.34;4998396;28;20030;-63
2022/12/19 09:50:52;;;;;;;11.23;6.80;;;;;;;24.40;40.38;96766.72;4971841;28;20046;-62
2022/12/19 09:53:26;;;;;;;10.00;6.65;;;;;;;24.64;39.82;96764.59;4968632;28;20454;-64
2022/12/19 09:55:52;;;;;;;11.65;6.82;;;;;;;24.69;39.62;96744.03;4981213;28;20073;-63
2022/12/19 09:58:48;;;;;;;10.55;6.80;;;;;;;24.69;39.03;96733.09;4986449;28;20053;-63
2022/12/19 10:01:32;;;;;;;11.13;6.90;;;;;;;24.67;38.48;96732.84;4967259;28;20046;-64
2022/12/19 10:04:17;;;;;;;12.13;7.15;;;;;;;24.43;38.34;96677.63;4959555;28;20066;-63
2022/12/19 10:06:42;;;;;;;12.35;7.38;;;;;;;24.76;38.81;96727.25;4958370;28;20588;-63
2022/12/19 10:09:15;;;;;;;11.88;7.55;;;;;;;24.83;38.30;96736.53;4985859;28;20046;-63
2022/12/19 10:11:40;;;;;;;11.82;7.32;;;;;;;24.99;37.74;96730.56;4973623;28;20033;-63
2022/12/19 10:14:42;;;;;;;10.38;7.63;;;;;;;25.05;37.73;96728.66;4998993;28;20604;-62
2022/12/19 10:17:34;;;;;;;10.18;7.15;;;;;;;24.79;37.84;96720.84;4957712;28;20077;-62
2022/12/19 10:20:21;;;;;;;10.82;7.43;;;;;;;24.74;37.94;96718.75;4972808;28;20057;-63
2022/12/19 10:22:49;;;;;;;11.27;7.68;;;;;;;24.86;37.36;96721.19;4986919;28;20065;-62
2022/12/19 10:25:28;;;;;;;10.52;7.35;;;;;;;24.81;37.11;96718.38;4985947;28;20068;-63
2022/12/19 10:28:25;;;;;;;12.45;7.78;;;;;;;24.17;37.03;96607.72;4994503;28;20128;-62
2022/12/19 10:31:12;;;;;;;10.27;7.22;;;;;;;24.75;37.29;96692.94;4955516;28;20054;-62
2022/12/19 10:33:42;;;;;;;10.30;7.93;;;;;;;24.80;37.15;96695.75;4998355;28;20042;-62
2022/12/19 10:36:09;;;;;;;9.02;7.38;;;;;;;24.21;37.50;96649.97;4988412;28;20371;-62
2022/12/19 10:39:10;;;;;;;10.25;7.50;;;;;;;24.80;37.33;96705.91;4994490;28;20022;-63
2022/12/19 10:41:36;;;;;;;9.40;7.13;;;;;;;24.57;37.16;96687.75;4948922;28;20047;-62
2022/12/19 10:44:08;;;;;;;10.30;7.35;;;;;;;24.50;37.78;96671.78;4980023;28;20054;-63
2022/12/19 10:46:40;;;;;;;10.68;7.65;;;;;;;24.59;37.55;96691.50;4973680;28;20038;-62
2022/12/19 10:49:13;;;;;;;10.70;7.35;;;;;;;24.00;37.70;96591.13;4991290;28;20069;-63
2022/12/19 10:51:39;;;;;;;10.20;6.90;;;;;;;24.90;37.24;96678.75;4993911;28;20045;-63
2022/12/19 10:54:04;;;;;;;9.18;7.13;;;;;;;24.82;37.59;96693.28;4988798;28;20033;-62
2022/12/19 10:56:30;;;;;;;10.77;7.07;;;;;;;24.92;37.02;96676.28;5002468;28;20465;-63
2022/12/19 10:58:57;;;;;;;11.10;7.38;;;;;;;24.99;37.31;96686.84;4989900;28;20031;-63
2022/12/19 11:01:27;;;;;;;9.80;7.10;;;;;;;25.04;37.53;96694.34;4971022;28;20594;-62
2022/12/19 11:04:12;;;;;;;9.73;7.50;;;;;;;24.26;37.71;96583.81;4986940;28;20066;-61
2022/12/19 11:06:48;;;;;;;12.30;7.00;;;;;;;24.82;37.74;96683.09;4993710;28;20050;-62
2022/12/19 11:09:28;;;;;;;12.18;7.25;;;;;;;24.93;37.31;96687.94;4985453;28;20542;-62
2022/12/19 11:12:11;;;;;;;10.88;7.10;;;;;;;25.30;36.95;96692.38;4988945;28;20034;-63
2022/12/19 11:14:42;;;;;;;11.77;6.72;;;;;;;24.85;37.80;96698.53;4990218;28;20060;-62
2022/12/19 11:17:34;;;;;;;9.80;6.85;;;;;;;23.99;37.79;96578.72;4954355;28;20176;-62
2022/12/19 11:20:11;;;;;;;11.00;8.13;;;;;;;24.93;38.06;96683.25;4977899;28;20157;-62
2022/12/19 11:22:36;;;;;;;9.93;7.03;;;;;;;24.91;37.90;96680.22;4984632;28;20038;-62
2022/12/19 11:25:02;;;;;;;10.45;7.50;;;;;;;24.85;37.81;96673.94;4988986;28;20089;-61
2022/12/19 11:27:30;;;;;;;10.00;7.22;;;;;;;24.71;38.12;96654.13;4975727;28;20045;-62
2022/12/19 11:29:55;;;;;;;11.00;7.22;;;;;;;24.80;37.94;96678.59;4963330;28;20038;-62
2022/12/19 11:32:38;;;;;;;9.68;7.03;;;;;;;24.87;37.96;96662.53;4995004;28;20691;-62
2022/12/19 11:35:13;;;;;;;12.32;7.60;;;;;;;24.46;37.72;96693.06;4994654;28;20050;-61
2022/12/19 11:37:45;;;;;;;10.35;7.20;;;;;;;24.38;37.32;96577.28;4974507;28;20155;-62
2022/12/19 11:40:21;;;;;;;12.70;7.35;;;;;;;25.15;37.67;96645.25;4984058;28;20526;-62
2022/12/19 11:43:43;;;;;;;14.43;8.90;;;;;;;25.07;36.40;96671.50;4989549;28;20053;-62
2022/12/19 11:46:42;;;;;;;13.68;8.32;;;;;;;25.04;37.37;96669.75;4992460;28;20046;-63